Alor Star, Malaysia

12:57 AM MYT on August 30, 2015 (GMT +0800)
Hat Yai International | | Change Station
CLOSE
Current Station
Airport
Location: Hat Yai,
Elevation: 89 ft
Nearby Weather Stations

Elev 89 ft 6.93 °N, 100.39 °E | Updated 27 minutes ago

Mostly Cloudy
Mostly Cloudy
79 °F
Feels Like 79 °F
N
2
Wind Variable Wind from South

Today
High -- | Low -- °F
--% Chance of Precip.
Yesterday
High -- | Low -- °F
Precip. -- in
7:11 AM 7:26 PM
Full, 100% visible
Pressure 29.89 in
Visibility 5.0 miles
Clouds Few 2000 ft
Mostly Cloudy 12000 ft
Mostly Cloudy 30000 ft
Dew Point 77 °F
Humidity 94%
Rainfall 0.00 in
Snow Depth Not available.
UV 0 out of 12
Pollen Not available.
Air Quality Not available.
Flu Activity Not available.
METAR VTSS 291630Z 18002KT 8000 FEW020 BKN120 BKN300 26/25 Q1012 A2988 NOSIG
Pressure 29.89 in
Visibility 5.0 miles
Clouds Few 2000 ft
Mostly Cloudy 12000 ft
Mostly Cloudy 30000 ft
Dew Point 77 °F
Humidity 94%
Rainfall 0.00 in
Snow Depth Not available.
UV 0 out of 12
Pollen Not available.
Air Quality Not available.
Flu Activity Not available.
METAR VTSS 291630Z 18002KT 8000 FEW020 BKN120 BKN300 26/25 Q1012 A2988 NOSIG

10-Day Weather Forecast

×

Almanac

Astronomy

Aug. 30, 2015 Rise Set
Actual Time
Civil Twilight
Nautical Twilight
Astronomical Twilight
Moon
Length of Visible Light
Length of Day
Tomorrow will be .
, % of the Moon is Illuminated

Today's Extremes

Country Highs Country Lows

Community

WunderPhotos

Upload Photos

1,850,722 photos uploaded!

WunderBlogs® & News

Nearby

Air Quality

  Air Quality AQ Index Pollutant
Not available.

Snow Depth

Station Depth Elevation

Earthquake Activity

City Distance Mag. Time & Date
Minimum magnitude displayed is 2.5.

Coastal Water Temperatures

Place Temperature

Stations

Nearby Weather Stations

Station Location Temp. Windchill Dew Point Humidity Wind Precip. Elev Updated Type